Flight Track Log - Related Links

Times and Time Zones

All times are in EDT time to prevent confusion due to time zone crossing. See the 9Y-SXM flight status page for this flight to view local times or setup timezone preferences in your user account.

Time Position Orientation Groundspeed Altitude Reporting Facility
EDT Latitude Longitude Course Direction KTS MPH feet Rate Location/Type
Tue 11:03:22 PM 43.6700 -79.6710 317° Northwest 164 189 1,400  Level FlightAware ADS-B
Tue 11:03:47 PM 43.6600 -79.6940 239° Southwest 170 196 2,500 1,745 Climbing FlightAware ADS-B
Tue 11:04:17 PM 43.6470 -79.7260 241° Southwest 210 242 3,000 1,309 Climbing FlightAware ADS-B
Tue 11:04:42 PM 43.6330 -79.7570 238° Southwest 241 277 3,700 1,950 Climbing FlightAware ADS-B
Tue 11:04:57 PM 43.6200 -79.7700 216° Southwest 244 281 4,300 2,800 Climbing FlightAware ADS-B
Tue 11:05:12 PM 43.6030 -79.7730 187° South 248 285 5,100 2,700 Climbing FlightAware ADS-B
Tue 11:05:37 PM 43.5720 -79.7730 180° South 263 303 6,100 2,182 Climbing FlightAware ADS-B
Tue 11:06:07 PM 43.5340 -79.7720 179° South 285 328 7,100 2,267 Climbing FlightAware ADS-B
Tue 11:06:22 PM 43.5160 -79.7710 178° South 288 331 7,800 2,700 Climbing FlightAware ADS-B
Tue 11:06:47 PM 43.4800 -79.7700 179° South 296 341 8,900 2,229 Climbing FlightAware ADS-B
Tue 11:07:32 PM 43.4160 -79.7690 179° South 328 377 10,400 1,624 Climbing FlightAware ADS-B
Tue 11:08:12 PM 43.3500 -79.7680 179° South 372 428 11,200 1,765 Climbing FlightAware ADS-B
Tue 11:08:57 PM 43.2710 -79.7660 179° South 390 449 12,900 2,400 Climbing FlightAware ADS-B
Tue 11:09:37 PM 43.1990 -79.7640 179° South 394 453 14,600 2,625 Climbing FlightAware ADS-B
Tue 11:10:17 PM 43.1270 -79.7620 179° South 396 456 16,400 2,541 Climbing FlightAware ADS-B
Tue 11:11:02 PM 43.0420 -79.7620 180° South 399 459 18,200 2,188 Climbing FlightAware ADS-B
Tue 11:11:42 PM 42.9700 -79.7610 179° South 407 468 19,500 1,906 Climbing FlightAware ADS-B
Tue 11:12:27 PM 42.8830 -79.7570 178° South 417 480 20,900 1,694 Climbing FlightAware ADS-B
Tue 11:13:07 PM 42.8030 -79.7530 178° South 430 495 21,900 1,425 Climbing FlightAware ADS-B
Tue 11:13:47 PM 42.7300 -79.7470 177° South 441 507 22,800 1,553 Climbing FlightAware ADS-B
Tue 11:14:32 PM 42.6360 -79.7000 160° South 453 521 24,100 1,694 Climbing FlightAware ADS-B
Tue 11:15:12 PM 42.5600 -79.6540 156° South 454 522 25,200 1,553 Climbing FlightAware ADS-B
Tue 11:15:57 PM 42.4740 -79.6020 156° South 457 526 26,300 1,482 Climbing FlightAware ADS-B
Tue 11:16:37 PM 42.3950 -79.5530 155° Southeast 462 532 27,300 1,275 Climbing FlightAware ADS-B
Tue 11:17:17 PM 42.3160 -79.5050 156° South 469 540 28,000 918 Climbing FlightAware ADS-B
Tue 11:18:02 PM 42.2280 -79.4520 156° South 480 552 28,600 847 Climbing FlightAware ADS-B
Tue 11:18:42 PM 42.1440 -79.4010 156° South 487 560 29,200 1,059 Climbing FlightAware ADS-B
Tue 11:19:27 PM 42.0530 -79.3460 156° South 488 562 30,100 1,271 Climbing FlightAware ADS-B
Tue 11:20:07 PM 41.9690 -79.2960 156° South 486 559 31,000 1,271 Climbing FlightAware ADS-B
Tue 11:20:52 PM 41.8790 -79.2420 156° South 483 556 31,900 1,200 Climbing FlightAware ADS-B
Tue 11:21:32 PM 41.7960 -79.1920 156° South 482 555 32,700 1,129 Climbing FlightAware ADS-B
Tue 11:22:17 PM 41.7040 -79.1380 156° South 480 552 33,500 1,059 Climbing FlightAware ADS-B
Tue 11:22:57 PM 41.6240 -79.0910 156° South 477 549 34,200 1,050 Climbing FlightAware ADS-B
Tue 11:23:37 PM 41.5450 -79.0440 156° South 475 547 34,900 565 Climbing FlightAware ADS-B
Tue 11:24:22 PM 41.4550 -78.9910 156° South 475 547 35,000 71 Climbing FlightAware ADS-B
Tue 11:25:02 PM 41.3730 -78.9430 156° South 473 544 35,000  Level FlightAware ADS-B
Tue 11:25:47 PM 41.2840 -78.8900 156° South 473 544 35,000  Level FlightAware ADS-B
Tue 11:26:27 PM 41.2030 -78.8430 156° South 473 544 35,000  Level FlightAware ADS-B
Tue 11:27:07 PM 41.1250 -78.7980 157° South 471 542 35,000  Level FlightAware ADS-B
Tue 11:27:52 PM 41.0330 -78.7450 157° South 472 543 35,000  Level FlightAware ADS-B
Tue 11:28:32 PM 40.9540 -78.6990 156° South 472 543 35,000  Level FlightAware ADS-B
Tue 11:29:17 PM 40.8630 -78.6470 157° South 472 543 35,000  Level FlightAware ADS-B
Tue 11:29:57 PM 40.7830 -78.6000 156° South 473 544 35,000  Level FlightAware ADS-B
Tue 11:30:37 PM 40.7050 -78.5560 157° South 474 545 35,000  Level FlightAware ADS-B
Tue 11:31:22 PM 40.6120 -78.5020 156° South 475 547 35,000  Level FlightAware ADS-B
Tue 11:32:02 PM 40.5330 -78.4570 157° South 476 548 35,000  Level FlightAware ADS-B
Tue 11:32:42 PM 40.4540 -78.4120 157° South 478 550 35,000  Level FlightAware ADS-B
Tue 11:33:27 PM 40.3590 -78.3580 157° South 479 551 35,000  Level FlightAware ADS-B
Tue 11:34:07 PM 40.2790 -78.3130 157° South 480 552 35,000  Level FlightAware ADS-B
Tue 11:34:51 PM 40.1727 -78.2529 157° South 482 555 35,000  Level FlightAware ADS-B
Tue 11:35:22 PM 40.1102 -78.2177 157° South 481 554 35,000  Level FlightAware ADS-B
Tue 11:35:54 PM 40.0454 -78.1815 157° South 480 552 35,000  Level FlightAware ADS-B
Tue 11:36:24 PM 39.9830 -78.1465 157° South 479 551 35,000  Level FlightAware ADS-B
Tue 11:36:57 PM 39.9310 -78.1170 156° South 478 550 35,000  Level FlightAware ADS-B
Tue 11:37:08 PM 39.8948 -78.0970 157° South 479 551 35,000  Level FlightAware ADS-B
Tue 11:37:52 PM 39.8046 -78.0467 157° South 478 550 35,000  Level FlightAware ADS-B
Tue 11:38:23 PM 39.7410 -78.0114 157° South 477 549 35,000  Level FlightAware ADS-B
Tue 11:38:54 PM 39.6796 -77.9772 157° South 477 549 35,000  Level FlightAware ADS-B
Tue 11:39:24 PM 39.6187 -77.9435 157° South 476 548 35,000  Level FlightAware ADS-B
Tue 11:39:55 PM 39.5549 -77.9082 157° South 477 549 35,000  Level FlightAware ADS-B
Tue 11:40:25 PM 39.4937 -77.8744 157° South 478 550 35,000  Level FlightAware ADS-B
Tue 11:40:57 PM 39.4292 -77.8388 157° South 478 550 35,000  Level FlightAware ADS-B
Tue 11:41:28 PM 39.3673 -77.8048 157° South 479 551 35,000  Level FlightAware ADS-B
Tue 11:41:58 PM 39.3054 -77.7709 157° South 480 552 35,000  Level FlightAware ADS-B
Tue 11:42:12 PM 39.2774 -77.7539 155° Southeast 477 549 35,000  Level FlightAware ADS-B
Tue 11:42:29 PM 39.2455 -77.7296 149° Southeast 473 544 35,000  Level FlightAware ADS-B
Tue 11:43:00 PM 39.1899 -77.6806 146° Southeast 471 542 35,000  Level FlightAware ADS-B
Tue 11:43:30 PM 39.1347 -77.6323 146° Southeast 471 542 35,000  Level FlightAware ADS-B
Tue 11:44:01 PM 39.0801 -77.5845 146° Southeast 471 542 35,000  Level FlightAware ADS-B
Tue 11:44:31 PM 39.0251 -77.5366 146° Southeast 471 542 35,000  Level FlightAware ADS-B
Tue 11:45:02 PM 38.9695 -77.4881 146° Southeast 470 541 35,000  Level FlightAware ADS-B
Tue 11:45:32 PM 38.9153 -77.4406 146° Southeast 471 542 35,000  Level FlightAware ADS-B
Tue 11:46:03 PM 38.8597 -77.3922 146° Southeast 473 544 35,000  Level FlightAware ADS-B
Tue 11:46:34 PM 38.8033 -77.3433 146° Southeast 473 544 35,000  Level FlightAware ADS-B
Tue 11:47:04 PM 38.7484 -77.2967 146° Southeast 472 543 35,000  Level FlightAware ADS-B
Tue 11:47:35 PM 38.6938 -77.2499 146° Southeast 471 542 35,000  Level FlightAware ADS-B
Tue 11:48:05 PM 38.6382 -77.2020 146° Southeast 471 542 35,000  Level FlightAware ADS-B
Tue 11:48:35 PM 38.5841 -77.1550 146° Southeast 472 543 35,000  Level FlightAware ADS-B
Tue 11:49:06 PM 38.5296 -77.1076 146° Southeast 474 545 35,000  Level FlightAware ADS-B
Tue 11:49:36 PM 38.4748 -77.0605 146° Southeast 475 547 35,000  Level FlightAware ADS-B
Tue 11:50:08 PM 38.4166 -77.0106 146° Southeast 475 547 35,000  Level FlightAware ADS-B
Tue 11:50:38 PM 38.3619 -76.9636 146° Southeast 475 547 35,000  Level FlightAware ADS-B
Tue 11:51:08 PM 38.3071 -76.9168 146° Southeast 475 547 35,000  Level FlightAware ADS-B
Tue 11:51:38 PM 38.2517 -76.8699 146° Southeast 476 548 35,000  Level FlightAware ADS-B
Tue 11:52:08 PM 38.1968 -76.8228 146° Southeast 478 550 35,000  Level FlightAware ADS-B
Tue 11:52:44 PM 38.1315 -76.7671 146° Southeast 480 552 35,000  Level FlightAware ADS-B
Tue 11:53:14 PM 38.0760 -76.7201 146° Southeast 482 555 35,000  Level FlightAware ADS-B
Tue 11:53:45 PM 38.0188 -76.6719 146° Southeast 483 556 35,000  Level FlightAware ADS-B
Tue 11:54:15 PM 37.9610 -76.6233 146° Southeast 483 556 35,000  Level FlightAware ADS-B
Tue 11:54:45 PM 37.9056 -76.5769 147° Southeast 481 554 35,000  Level FlightAware ADS-B
Tue 11:55:16 PM 37.8490 -76.5294 146° Southeast 480 552 35,000  Level FlightAware ADS-B
Tue 11:55:47 PM 37.7921 -76.4817 146° Southeast 478 550 35,000  Level FlightAware ADS-B
Tue 11:56:17 PM 37.7357 -76.4345 146° Southeast 478 550 35,000  Level FlightAware ADS-B
Tue 11:56:54 PM 37.6687 -76.3783 146° Southeast 478 550 35,000 179 Level FlightAware ADS-B
Tue 11:57:24 PM 37.6125 -76.3313 146° Southeast 480 552 35,200 600 Climbing FlightAware ADS-B
Tue 11:57:54 PM 37.5569 -76.2849 147° Southeast 478 550 35,600 700 Climbing FlightAware ADS-B
Tue 11:58:24 PM 37.5017 -76.2392 147° Southeast 478 550 35,900 600 Climbing FlightAware ADS-B
Tue 11:58:54 PM 37.4459 -76.1928 147° Southeast 479 551 36,200 600 Climbing FlightAware ADS-B
Tue 11:59:24 PM 37.3902 -76.1468 147° Southeast 481 554 36,500 295 Climbing FlightAware ADS-B
Tue 11:59:55 PM 37.3325 -76.0992 147° Southeast 488 562 36,500 98 Level FlightAware ADS-B
Wed 12:00:25 AM 37.2751 -76.0518 147° Southeast 494 568 36,600 197 Climbing FlightAware ADS-B
Wed 12:00:56 AM 37.2160 -76.0031 147° Southeast 498 573 36,700 393 Climbing FlightAware ADS-B
Wed 12:01:26 AM 37.1579 -75.9557 147° Southeast 497 572 37,000 295 Climbing FlightAware ADS-B
Wed 12:01:57 AM 37.0996 -75.9079 147° Southeast 493 567 37,000  Level FlightAware ADS-B
Wed 12:02:27 AM 37.0421 -75.8611 147° Southeast 490 564 37,000  Level FlightAware ADS-B
Wed 12:02:58 AM 36.9836 -75.8130 147° Southeast 490 564 37,000  Level FlightAware ADS-B
Wed 12:03:28 AM 36.9258 -75.7657 147° Southeast 488 562 37,000  Level FlightAware ADS-B
Wed 12:04:15 AM 36.8375 -75.6940 147° Southeast 488 562 37,000  Level FlightAware ADS-B
Wed 12:04:46 AM 36.7794 -75.6468 147° Southeast 487 560 37,000  Level FlightAware ADS-B
Wed 12:05:27 AM 36.7220 -75.5980 146° Southeast 479 551 37,000  Level FlightAware ADS-B
Wed 12:06:07 AM 36.6590 -75.5460 146° Southeast 479 551 37,000  Level FlightAware ADS-B
Wed 12:06:47 AM 36.5970 -75.4930 146° Southeast 479 551 37,000  Level FlightAware ADS-B
Wed 12:07:27 AM 36.5340 -75.4410 146° Southeast 479 551 37,000  Level FlightAware ADS-B
Wed 12:08:07 AM 36.4720 -75.3890 146° Southeast 479 551 37,000  Level FlightAware ADS-B
Wed 12:08:47 AM 36.4090 -75.3360 146° Southeast 479 551 37,000  Level FlightAware ADS-B
Wed 12:09:37 AM 36.3310 -75.2710 146° Southeast 479 551 37,000  Level FlightAware ADS-B
Wed 12:10:17 AM 36.2690 -75.2190 146° Southeast 479 551 37,000  Level FlightAware ADS-B
Wed 12:10:57 AM 36.2060 -75.1660 146° Southeast 479 551 37,000  Level FlightAware ADS-B
Wed 12:11:37 AM 36.1440 -75.1140 146° Southeast 479 551 37,000  Level FlightAware ADS-B
Wed 12:12:17 AM 36.0810 -75.0620 146° Southeast 479 551 37,000  Level FlightAware ADS-B
Wed 12:13:07 AM 36.0030 -74.9970 146° Southeast 479 551 37,000  Level FlightAware ADS-B
Wed 12:13:47 AM 35.9410 -74.9450 146° Southeast 479 551 37,000  Level FlightAware ADS-B
Wed 12:14:27 AM 35.8780 -74.8930 146° Southeast 479 551 37,000  Level FlightAware ADS-B
Wed 12:15:06 AM 35.6414 -74.7394 146° Southeast 483 556 37,000 -63 Level New York Center
Wed 12:16:03 AM 35.5297 -74.6469 146° Southeast 483 556 36,900 -51 Descending New York Center
Wed 12:17:04 AM 35.4181 -74.5572 147° Southeast 483 556 36,900 49 Level New York Center
Wed 12:18:05 AM 35.3081 -74.4706 147° Southeast 483 556 37,000  Climbing New York Center
Wed 12:19:06 AM 35.1961 -74.3839 148° Southeast 478 550 36,900  Descending New York Center
Wed 12:20:03 AM 35.0842 -74.2975 148° Southeast 478 550 37,000 51 Climbing New York Center
Wed 12:21:04 AM 34.9697 -74.2114 148° Southeast 478 550 37,000 -50 Level New York Center
Wed 12:22:03 AM 34.8578 -74.1231 147° Southeast 483 556 36,900  Descending New York Center
Wed 12:23:05 AM 34.7453 -74.0372 148° Southeast 478 550 37,000  Climbing New York Center
Wed 12:24:03 AM 34.6331 -73.9544 149° Southeast 478 550 36,900  Descending New York Center
Wed 12:25:04 AM 34.5225 -73.8719 148° Southeast 478 550 37,000 Climbing New York Center
Wed 12:27:00 AM 34.3080 -73.7364 165° South  Level FlightAware Approximate
Wed 12:34:00 AM 33.4587 -73.4581 164° South  Level FlightAware Approximate
Wed 12:35:00 AM 33.3375 -73.4178 164° South  Level FlightAware Approximate
Wed 12:36:00 AM 33.2163 -73.3778 165° South  Level FlightAware Approximate
Wed 12:37:00 AM 33.0949 -73.3387 165° South  Level FlightAware Approximate
Wed 12:38:00 AM 32.9735 -73.2996 165° South  Level FlightAware Approximate
Wed 12:39:00 AM 32.8521 -73.2607 165° South  Level FlightAware Approximate
Wed 12:40:00 AM 32.7304 -73.2229 166° South  Level FlightAware Approximate
Wed 12:41:00 AM 32.6082 -73.1879 166° South  Level FlightAware Approximate
Wed 12:42:00 AM 32.4859 -73.1530 166° South  Level FlightAware Approximate
Wed 12:43:00 AM 32.3637 -73.1181 166° South  Level FlightAware Approximate
Wed 12:44:00 AM 32.2417 -73.0819 165° South  Level FlightAware Approximate
Wed 12:45:00 AM 32.1201 -73.0442 165° South  Level FlightAware Approximate
Wed 12:46:00 AM 31.9984 -73.0066 165° South  Level FlightAware Approximate
Wed 12:47:00 AM 31.8768 -72.9691 165° South  Level FlightAware Approximate
Wed 12:48:00 AM 31.7551 -72.9317 165° South  Level FlightAware Approximate
Wed 12:49:00 AM 31.6335 -72.8944 165° South  Level FlightAware Approximate
Wed 12:50:00 AM 31.5118 -72.8572 165° South  Level FlightAware Approximate
Wed 12:51:00 AM 31.3901 -72.8201 165° South  Level FlightAware Approximate
Wed 12:52:00 AM 31.2684 -72.7831 165° South  Level FlightAware Approximate
Wed 12:53:00 AM 31.1467 -72.7462 165° South  Level FlightAware Approximate
Wed 12:54:00 AM 31.0249 -72.7094 165° South  Level FlightAware Approximate
Wed 12:55:00 AM 30.9032 -72.6727 165° South  Level FlightAware Approximate
Wed 12:56:00 AM 30.7814 -72.6360 166° South  Level FlightAware Approximate
Wed 12:57:00 AM 30.6597 -72.5995 166° South  Level FlightAware Approximate
Wed 12:58:00 AM 30.5380 -72.5627 164° South  Level FlightAware Approximate
Wed 12:59:00 AM 30.4172 -72.5223 164° South  Level FlightAware Approximate
Wed 01:00:00 AM 30.2963 -72.4820 164° South  Level FlightAware Approximate
Wed 01:01:00 AM 30.1755 -72.4418 164° South  Level FlightAware Approximate
Wed 01:01:40 AM 30.1667 -72.4500 166° South 476 548 37,000  Level New York Oceanic (ODAPS)
Wed 01:02:00 AM 30.0530 -72.4090 168° South  Level FlightAware Approximate
Wed 01:03:00 AM 29.9301 -72.3783 168° South  Level FlightAware Approximate
Wed 01:04:00 AM 29.8078 -72.3447 166° South  Level FlightAware Approximate
Wed 01:05:00 AM 29.6859 -72.3092 166° South  Level FlightAware Approximate
Wed 01:06:00 AM 29.5640 -72.2738 166° South  Level FlightAware Approximate
Wed 01:07:00 AM 29.4408 -72.2382 166° South  Level FlightAware Approximate
Wed 01:08:00 AM 29.1346 -72.1522 166° South 476 548 37,000  Level FlightAware Transoceanic
Wed 01:09:00 AM 29.0055 -72.1154 166° South 476 548 37,000  Level FlightAware Transoceanic
Wed 01:10:00 AM 28.8764 -72.0787 166° South 476 548 37,000  Level FlightAware Transoceanic
Wed 01:11:00 AM 28.7473 -72.0420 166° South 476 548 37,000  Level FlightAware Transoceanic
Wed 01:12:00 AM 28.6182 -72.0055 166° South 476 548 37,000  Level FlightAware Transoceanic
Wed 01:13:00 AM 28.4891 -71.9691 166° South 476 548 37,000  Level FlightAware Transoceanic
Wed 01:14:00 AM 28.3600 -71.9327 166° South 476 548 37,000  Level FlightAware Transoceanic
Wed 01:15:00 AM 28.2309 -71.8965 166° South 476 548 37,000  Level FlightAware Transoceanic
Wed 01:16:00 AM 28.1018 -71.8603 166° South 476 548 37,000  Level FlightAware Transoceanic
Wed 01:17:00 AM 27.9726 -71.8242 166° South 476 548 37,000  Level FlightAware Transoceanic
Wed 01:18:00 AM 27.8435 -71.7882 166° South 476 548 37,000  Level FlightAware Transoceanic
Wed 01:19:00 AM 27.7143 -71.7523 166° South 476 548 37,000  Level FlightAware Transoceanic
Wed 01:20:00 AM 27.5852 -71.7164 166° South 476 548 37,000  Level FlightAware Transoceanic
Wed 01:21:00 AM 27.4560 -71.6807 166° South 476 548 37,000  Level FlightAware Transoceanic
Wed 01:22:00 AM 27.3268 -71.6450 166° South 476 548 37,000  Level FlightAware Transoceanic
Wed 01:23:00 AM 27.1976 -71.6095 166° South 476 548 37,000  Level FlightAware Transoceanic
Wed 01:24:00 AM 27.0684 -71.5740 166° South 476 548 37,000  Level FlightAware Transoceanic
Wed 01:25:00 AM 26.9392 -71.5385 166° South 476 548 37,000  Level FlightAware Transoceanic
Wed 01:26:00 AM 26.8100 -71.5032 166° South 476 548 37,000  Level FlightAware Transoceanic
Wed 01:27:00 AM 26.6807 -71.4679 166° South 476 548 37,000  Level FlightAware Transoceanic
Wed 01:28:00 AM 26.5515 -71.4328 166° South 476 548 37,000  Level FlightAware Transoceanic
Wed 01:29:00 AM 26.4223 -71.3977 166° South 476 548 37,000  Level FlightAware Transoceanic
Wed 01:30:00 AM 26.2930 -71.3626 166° South 476 548 37,000  Level FlightAware Transoceanic
Wed 01:31:00 AM 26.1637 -71.3277 166° South 476 548 37,000  Level FlightAware Transoceanic
Wed 01:32:00 AM 26.0345 -71.2928 166° South 476 548 37,000  Level FlightAware Transoceanic
Wed 01:33:00 AM 25.9052 -71.2581 166° South 476 548 37,000  Level FlightAware Transoceanic
Wed 01:34:00 AM 25.7759 -71.2234 166° South 476 548 37,000  Level FlightAware Transoceanic
Wed 01:34:27 AM 25.5297 -71.1469 166° South 452 520 37,000  Level Miami Center
Wed 01:35:00 AM 25.6466 -71.1887 166° South 476 548 37,000  Level FlightAware Transoceanic
Wed 01:35:27 AM 25.3969 -71.1142 167° South 464 534 37,000  Level Miami Center
Wed 01:36:00 AM 25.5173 -71.1542 166° South 476 548 37,000  Level FlightAware Transoceanic
Wed 01:36:27 AM 25.2661 -71.0767 165° South 481 554 37,000  Level Miami Center
Wed 01:37:00 AM 25.3880 -71.1197 166° South 476 548 37,000  Level FlightAware Transoceanic
Wed 01:37:27 AM 25.1353 -71.0394 166° South 481 554 37,000  Level Miami Center
Wed 01:38:00 AM 25.2587 -71.0853 166° South 476 548 37,000  Level FlightAware Transoceanic
Wed 01:38:27 AM 25.0086 -71.0086 168° South 481 554 37,000  Level Miami Center
Wed 01:39:00 AM 25.1293 -71.0509 166° South 476 548 37,000  Level FlightAware Transoceanic
Wed 01:39:27 AM 24.8744 -70.9900 173° South 476 548 37,000  Level Miami Center
Wed 01:40:27 AM 24.7531 -70.9342 157° South 476 548 37,000  Level Miami Center
Wed 01:41:27 AM 24.6389 -70.8458 145° Southeast 481 554 37,000  Level Miami Center
Wed 01:42:27 AM 24.5244 -70.7511 143° Southeast 498 573 37,000  Level Miami Center
Wed 01:43:27 AM 24.4106 -70.6700 147° Southeast 503 579 37,000  Level Miami Center
Wed 01:44:27 AM 24.2939 -70.5803 145° Southeast 503 579 37,000  Level Miami Center
Wed 01:45:27 AM 24.1753 -70.4906 145° Southeast 516 594 37,000  Level Miami Center
Wed 01:46:27 AM 24.0614 -70.4125 148° Southeast 516 594 37,000  Level Miami Center
Wed 01:47:27 AM 23.9472 -70.3275 146° Southeast 499 574 37,000  Level Miami Center
Wed 01:48:27 AM 23.8325 -70.2381 144° Southeast 499 574 37,000  Level Miami Center
Wed 01:49:27 AM 23.7164 -70.1558 147° Southeast 505 581 37,000  Level Miami Center
Wed 01:50:27 AM 23.5994 -70.0669 145° Southeast 505 581 37,000  Level Miami Center
Wed 01:51:27 AM 23.4853 -69.9847 147° Southeast 505 581 37,000  Level Miami Center
Wed 01:52:27 AM 23.3664 -69.8964 146° Southeast 505 581 37,000  Level Miami Center
Wed 01:53:27 AM 23.2411 -69.8061 146° Southeast 500 575 37,000  Level Miami Center
Wed 01:54:27 AM 23.1267 -69.7222 146° Southeast 500 575 37,000  Level Miami Center
Wed 01:55:27 AM 23.0081 -69.6386 147° Southeast 500 575 37,000  Level Miami Center
Wed 01:56:27 AM 22.8933 -69.5550 146° Southeast 500 575 37,000  Level Miami Center
Wed 01:57:27 AM 22.7831 -69.4736 146° Southeast 505 581 37,000  Level Miami Center
Wed 01:58:27 AM 22.6619 -69.3861 146° Southeast 500 575 37,000  Level Miami Center
Wed 01:59:27 AM 22.5497 -69.3050 146° Southeast 500 575 37,000  Level Miami Center
Wed 02:00:27 AM 22.4350 -69.2219 146° Southeast 500 575 37,000  Level Miami Center
Wed 02:01:27 AM 22.3225 -69.1389 146° Southeast 500 575 37,000  Level Miami Center
Wed 02:02:27 AM 22.2100 -69.0606 147° Southeast 500 575 37,000  Level Miami Center
Wed 02:03:27 AM 22.0892 -68.9783 148° Southeast 501 577 37,000  Level Miami Center
Wed 02:04:27 AM 21.9764 -68.8956 146° Southeast 496 571 37,000  Level Miami Center
Wed 02:05:27 AM 21.8700 -68.8150 145° Southeast 496 571 37,000  Level Miami Center
Wed 02:06:27 AM 21.7492 -68.7331 148° Southeast 501 577 37,000  Level Miami Center
Wed 02:07:27 AM 21.6386 -68.6528 146° Southeast 494 568 37,000  Level Miami Center
Wed 02:08:27 AM 21.5217 -68.5733 148° Southeast 494 568 37,000  Level Miami Center
Wed 02:09:27 AM 21.4133 -68.4931 145° Southeast 497 572 37,000  Level Miami Center
Wed 02:10:27 AM 21.2942 -68.4094 147° Southeast 497 572 37,000  Level Miami Center
Wed 02:11:27 AM 21.1753 -68.3325 149° Southeast 515 593 37,000  Level Miami Center
Wed 02:17:17 AM 20.5230 -67.8620 149° Southeast 485 558 37,000  Level FlightAware ADS-B
Wed 02:18:07 AM 20.4320 -67.7980 147° Southeast 484 557 37,000  Level FlightAware ADS-B
Wed 02:18:52 AM 20.3430 -67.7360 147° Southeast 482 555 37,000  Level FlightAware ADS-B
Wed 02:19:37 AM 20.2600 -67.6780 147° Southeast 482 555 37,000  Level FlightAware ADS-B
Wed 02:20:17 AM 20.1850 -67.6260 147° Southeast 482 555 37,000  Level FlightAware ADS-B
Wed 02:20:52 AM 20.1180 -67.5790 147° Southeast 482 555 37,000  Level FlightAware ADS-B
Wed 02:21:42 AM 20.0230 -67.5140 147° Southeast 481 554 37,000  Level FlightAware ADS-B
Wed 02:22:22 AM 19.9480 -67.4620 147° Southeast 481 554 37,000  Level FlightAware ADS-B
Wed 02:22:57 AM 19.8860 -67.4190 147° Southeast 481 554 37,000  Level FlightAware ADS-B
Wed 02:23:47 AM 19.7920 -67.3530 147° Southeast 481 554 37,000  Level FlightAware ADS-B
Wed 02:24:27 AM 19.7170 -67.3020 147° Southeast 480 552 37,000  Level FlightAware ADS-B
Wed 02:25:12 AM 19.6300 -67.2420 147° Southeast 481 554 37,000  Level FlightAware ADS-B
Wed 02:25:52 AM 19.5570 -67.1910 147° Southeast 481 554 37,000  Level FlightAware ADS-B
Wed 02:26:37 AM 19.4750 -67.1350 147° Southeast 480 552 37,000  Level FlightAware ADS-B
Wed 02:27:17 AM 19.3990 -67.0820 147° Southeast 479 551 37,000  Level FlightAware ADS-B
Wed 02:27:57 AM 19.3240 -67.0310 147° Southeast 479 551 37,000  Level FlightAware ADS-B
Wed 02:28:42 AM 19.2420 -66.9740 147° Southeast 479 551 37,000  Level FlightAware ADS-B
Wed 02:29:22 AM 19.1660 -66.9230 148° Southeast 479 551 37,000  Level FlightAware ADS-B
Wed 02:30:07 AM 19.0820 -66.8650 147° Southeast 477 549 37,000  Level FlightAware ADS-B
Wed 02:30:47 AM 19.0070 -66.8130 147° Southeast 475 547 37,000  Level FlightAware ADS-B
Wed 02:31:27 AM 18.9330 -66.7630 147° Southeast 474 545 37,000  Level FlightAware ADS-B
Wed 02:32:12 AM 18.8520 -66.7080 147° Southeast 475 547 37,000  Level FlightAware ADS-B
Wed 02:32:52 AM 18.7770 -66.6570 147° Southeast 474 545 37,000  Level FlightAware ADS-B
Wed 02:33:37 AM 18.6930 -66.6000 147° Southeast 474 545 37,000  Level FlightAware ADS-B
Wed 02:34:17 AM 18.6220 -66.5510 147° Southeast 475 547 37,000  Level FlightAware ADS-B
Wed 02:35:02 AM 18.5360 -66.4930 147° Southeast 476 548 37,000  Level FlightAware ADS-B
Wed 02:35:42 AM 18.4640 -66.4440 147° Southeast 477 549 37,000  Level FlightAware ADS-B
Wed 02:36:22 AM 18.3890 -66.3930 147° Southeast 477 549 37,000  Level FlightAware ADS-B
Wed 02:37:02 AM 18.3150 -66.3430 147° Southeast 477 549 37,000  Level FlightAware ADS-B
Wed 02:37:47 AM 18.2280 -66.2840 147° Southeast 477 549 37,000  Level FlightAware ADS-B
Wed 02:38:27 AM 18.1550 -66.2340 147° Southeast 477 549 37,000  Level FlightAware ADS-B
Wed 02:39:12 AM 18.0730 -66.1790 147° Southeast 478 550 37,000  Level FlightAware ADS-B
Wed 02:39:52 AM 17.9970 -66.1280 147° Southeast 478 550 37,000  Level FlightAware ADS-B
Wed 02:40:37 AM 17.9120 -66.0700 147° Southeast 478 550 37,000  Level FlightAware ADS-B
Wed 02:41:17 AM 17.8370 -66.0200 148° Southeast 479 551 37,000  Level FlightAware ADS-B
Wed 02:41:57 AM 17.7620 -65.9700 148° Southeast 478 550 37,000  Level FlightAware ADS-B
Wed 02:42:42 AM 17.6800 -65.9150 147° Southeast 478 550 37,000  Level FlightAware ADS-B
Wed 02:43:22 AM 17.6070 -65.8660 147° Southeast 478 550 37,000  Level FlightAware ADS-B
Wed 02:44:02 AM 17.5310 -65.8150 147° Southeast 478 550 37,000  Level FlightAware ADS-B
Wed 02:44:47 AM 17.4450 -65.7570 147° Southeast 478 550 37,000  Level FlightAware ADS-B
Wed 02:45:27 AM 17.3710 -65.7070 147° Southeast 477 549 37,000  Level FlightAware ADS-B
Wed 02:46:12 AM 17.2870 -65.6520 148° Southeast 476 548 37,000  Level FlightAware ADS-B
Wed 02:46:52 AM 17.2130 -65.6020 147° Southeast 474 545 37,000  Level FlightAware ADS-B
Wed 02:47:32 AM 17.1490 -65.5590 147° Southeast 474 545 37,000  Level FlightAware ADS-B
Wed 02:48:12 AM 17.0860 -65.5160 147° Southeast 474 545 37,000  Level FlightAware ADS-B
Wed 02:48:52 AM 17.0240 -65.4740 147° Southeast 474 545 37,000  Level FlightAware ADS-B
Wed 02:49:42 AM 16.9460 -65.4210 147° Southeast 474 545 37,000  Level FlightAware ADS-B
Wed 02:50:22 AM 16.8830 -65.3780 147° Southeast 474 545 37,000  Level FlightAware ADS-B
Wed 02:51:02 AM 16.8210 -65.3360 147° Southeast 474 545 37,000  Level FlightAware ADS-B
Wed 02:51:42 AM 16.7580 -65.2930 147° Southeast 474 545 37,000  Level FlightAware ADS-B
Wed 02:52:22 AM 16.6960 -65.2510 147° Southeast 474 545 37,000  Level FlightAware ADS-B
Wed 02:53:12 AM 16.6170 -65.1980 147° Southeast 474 545 37,000  Level FlightAware ADS-B
Wed 02:53:52 AM 16.5550 -65.1560 147° Southeast 474 545 37,000  Level FlightAware ADS-B
Wed 02:54:32 AM 16.4920 -65.1130 147° Southeast 474 545 37,000  Level FlightAware ADS-B
Wed 02:55:12 AM 16.4300 -65.0710 147° Southeast 474 545 37,000  Level FlightAware ADS-B
Wed 02:55:52 AM 16.3670 -65.0290 147° Southeast 474 545 37,000  Level FlightAware ADS-B
Wed 02:56:42 AM 16.2890 -64.9760 147° Southeast 474 545 37,000 992 Level FlightAware ADS-B
Wed 02:57:53 AM 16.0000 -64.8000 147° Southeast 460 529 39,000 909 Climbing San Juan Center
Wed 02:58:54 AM 15.8833 -64.7333 151° Southeast 460 529 39,000  Level San Juan Center
Wed 02:59:54 AM 15.8000 -64.6667 142° Southeast 450 518 39,000  Level San Juan Center
Wed 03:00:54 AM 15.6667 -64.5667 144° Southeast 470 541 39,000  Level San Juan Center
Wed 03:01:55 AM 15.5500 -64.5167 158° South 440 506 39,000  Level San Juan Center
Wed 03:02:55 AM 15.4667 -64.4333 136° Southeast 460 529 39,000  Level San Juan Center
Wed 03:03:55 AM 15.3500 -64.3500 145° Southeast 460 529 39,000  Level San Juan Center
Wed 03:04:56 AM 15.2500 -64.2833 147° Southeast 450 518 39,000  Level San Juan Center
Wed 03:05:56 AM 15.1333 -64.2167 151° Southeast 440 506 39,000  Level San Juan Center
Wed 03:06:56 AM 15.0333 -64.1500 147° Southeast 430 495 39,000  Level San Juan Center
Wed 03:08:00 AM 14.9185 -64.0836 149° Southeast  Level FlightAware Approximate
Wed 03:15:00 AM 14.1581 -63.6216 149° Southeast  Level FlightAware Approximate
Wed 03:16:00 AM 14.0485 -63.5574 150° Southeast  Level FlightAware Approximate
Wed 03:17:00 AM 13.9388 -63.4934 150° Southeast  Level FlightAware Approximate
Wed 03:18:00 AM 13.8291 -63.4294 150° Southeast  Level FlightAware Approximate
Wed 03:19:00 AM 13.7194 -63.3656 151° Southeast  Level FlightAware Approximate
Wed 03:20:00 AM 13.6097 -63.3017 151° Southeast  Level FlightAware Approximate
Wed 03:21:00 AM 13.5000 -63.2380 151° Southeast  Level FlightAware Approximate
Wed 03:22:00 AM 13.3902 -63.1743 151° Southeast  Level FlightAware Approximate
Wed 03:23:00 AM 13.2805 -63.1106 151° Southeast  Level FlightAware Approximate
Wed 03:23:12 AM 13.3600 -63.0490 151° Southeast 442 509 39,000  Level FlightAware ADS-B
Wed 03:23:52 AM 13.3070 -63.0120 146° Southeast 441 507 39,000  Level FlightAware ADS-B
Wed 03:24:32 AM 13.2500 -62.9730 146° Southeast 441 507 39,000  Level FlightAware ADS-B
Wed 03:25:22 AM 13.1780 -62.9230 146° Southeast 441 507 39,000  Level FlightAware ADS-B
Wed 03:26:02 AM 13.1200 -62.8830 146° Southeast 441 507 39,000  Level FlightAware ADS-B
Wed 03:26:42 AM 13.0630 -62.8430 146° Southeast 441 507 39,000  Level FlightAware ADS-B
Wed 03:27:22 AM 13.0050 -62.8030 146° Southeast 441 507 39,000  Level FlightAware ADS-B
Wed 03:28:02 AM 12.9480 -62.7640 146° Southeast 441 507 39,000  Level FlightAware ADS-B
Wed 03:28:52 AM 12.7780 -62.6640 150° Southeast 441 507 39,000  Level FlightAware ADS-B
Wed 03:29:47 AM 12.6890 -62.6050 147° Southeast 441 507 39,000  Level FlightAware ADS-B
Wed 03:30:27 AM 12.6310 -62.5660 147° Southeast 441 507 39,000  Level FlightAware ADS-B
Wed 03:31:12 AM 12.5340 -62.5030 148° Southeast 39,000  Level FlightAware ADS-B
Wed 03:31:47 AM 12.4850 -62.4710 147° Southeast 445 512 39,000  Level FlightAware ADS-B
Wed 03:32:27 AM 12.4270 -62.4320 147° Southeast 445 512 39,000  Level FlightAware ADS-B
Wed 03:33:17 AM 12.3530 -62.3830 147° Southeast 445 512 39,000  Level FlightAware ADS-B
Wed 03:33:57 AM 12.2950 -62.3440 147° Southeast 445 512 39,000  Level FlightAware ADS-B
Wed 03:34:37 AM 12.2360 -62.3050 147° Southeast 445 512 39,000  Level FlightAware ADS-B
Wed 03:35:37 AM 12.0850 -62.2080 148° Southeast 441 507 39,000  Level FlightAware ADS-B
Wed 03:36:17 AM 12.0260 -62.1690 147° Southeast 441 507 39,000  Level FlightAware ADS-B
Wed 03:36:57 AM 11.9680 -62.1300 147° Southeast 441 507 39,000  Level FlightAware ADS-B
Wed 03:37:37 AM 11.9100 -62.0920 147° Southeast 441 507 39,000  Level FlightAware ADS-B
Wed 03:38:27 AM 11.8370 -62.0440 147° Southeast 441 507 39,000  Level FlightAware ADS-B
Wed 03:39:07 AM 11.7790 -62.0050 147° Southeast 441 507 39,000  Level FlightAware ADS-B
Wed 03:39:47 AM 11.7210 -61.9660 147° Southeast 441 507 39,000  Level FlightAware ADS-B
Wed 03:40:27 AM 11.6630 -61.9280 147° Southeast 441 507 39,000  Level FlightAware ADS-B
Wed 03:41:17 AM 11.5900 -61.8800 147° Southeast 441 507 39,000  Level FlightAware ADS-B
Wed 03:41:57 AM 11.5320 -61.8410 147° Southeast 441 507 39,000  Level FlightAware ADS-B
Wed 03:42:37 AM 11.4740 -61.8020 147° Southeast 441 507 39,000  Level FlightAware ADS-B
Wed 03:43:17 AM 11.4160 -61.7640 147° Southeast 441 507 39,000  Level FlightAware ADS-B
Wed 03:43:57 AM 11.3570 -61.7250 147° Southeast 441 507 39,000  Level FlightAware ADS-B
Wed 03:44:47 AM 11.2850 -61.6770 147° Southeast 441 507 39,000  Level FlightAware ADS-B
Wed 03:47:00 AM 11.0576 -61.5116 144° Southeast  Level Estimated
Wed 03:48:00 AM 10.9550 -61.4371 145° Southeast  Level Estimated
Wed 03:49:00 AM 10.8523 -61.3626 145° Southeast  Level Estimated
Wed 03:50:00 AM 10.7497 -61.2882 145° Southeast  Level Estimated
Wed 03:51:00 AM 10.6470 -61.2138 145° Southeast  Level Estimated
Wed 03:52:00 AM 10.5443 -61.1395 145° Southeast  Level Estimated
Wed 03:53:00 AM 10.4416 -61.0652 145° Southeast  Level Estimated
Wed 03:54:00 AM 10.3388 -60.9910 145° Southeast  Level Estimated
Wed 03:55:00 AM 10.2361 -60.9168 145° Southeast  Level Estimated
Wed 03:56:00 AM 10.1333 -60.8427 145° Southeast  Level Estimated
Wed 03:57:00 AM 10.0306 -60.7686 145° Southeast  Level Estimated
Wed 03:58:00 AM 9.9277 -60.6946 145° Southeast  Level Estimated
Wed 03:59:00 AM 9.8249 -60.6206 145° Southeast  Level Estimated
Wed 04:00:00 AM 9.7221 -60.5466 145° Southeast  Level Estimated
Wed 04:01:00 AM 9.6193 -60.4727 145° Southeast  Level Estimated
Wed 04:02:00 AM 9.5164 -60.3989 145° Southeast  Level Estimated
Wed 04:03:00 AM 9.4135 -60.3251 145° Southeast  Level Estimated
Wed 04:04:00 AM 9.3106 -60.2513 145° Southeast  Level Estimated
Wed 04:05:00 AM 9.2077 -60.1776 145° Southeast  Level Estimated
Wed 04:06:00 AM 9.1048 -60.1039 145° Southeast  Level Estimated
Wed 04:07:00 AM 9.0019 -60.0303 145° Southeast  Level Estimated
Wed 04:08:00 AM 8.8989 -59.9567 145° Southeast  Level Estimated
Wed 04:09:00 AM 8.7960 -59.8831 145° Southeast  Level Estimated
Wed 04:10:00 AM 8.6930 -59.8096 145° Southeast  Level Estimated
Wed 04:11:00 AM 8.5900 -59.7362 145° Southeast  Level Estimated
Wed 04:12:00 AM 8.4870 -59.6627 145° Southeast  Level Estimated
Wed 04:13:00 AM 8.3840 -59.5894 145° Southeast  Level Estimated
Wed 04:14:00 AM 8.2809 -59.5160 145° Southeast  Level Estimated
Wed 04:15:00 AM 8.1779 -59.4427 145° Southeast  Level Estimated
Wed 04:16:00 AM 8.0748 -59.3694 145° Southeast  Level Estimated
Wed 04:17:00 AM 7.9717 -59.2962 145° Southeast  Level Estimated
Wed 04:18:00 AM 7.8687 -59.2230 145° Southeast  Level Estimated
Wed 04:19:00 AM 7.7656 -59.1498 145° Southeast  Level Estimated
Wed 04:20:00 AM 7.6624 -59.0767 145° Southeast  Level Estimated
Wed 04:21:00 AM 7.5593 -59.0036 145° Southeast  Level Estimated
Wed 04:22:00 AM 7.4562 -58.9305 145° Southeast  Level Estimated
Wed 04:23:00 AM 7.3530 -58.8575 145° Southeast  Level Estimated
Wed 04:24:00 AM 7.2499 -58.7845 145° Southeast  Level Estimated
Wed 04:25:00 AM 7.1467 -58.7116 145° Southeast  Level Estimated
Wed 04:26:00 AM 7.0435 -58.6386 145° Southeast  Level Estimated
Wed 04:27:00 AM 6.9403 -58.5657 145° Southeast  Level Estimated
Wed 04:28:00 AM 6.8371 -58.4929 145° Southeast  Level Estimated
Wed 04:29:00 AM 6.7339 -58.4201 145° Southeast  Level Estimated
Wed 04:30:00 AM 6.6307 -58.3473 145° Southeast  Level Estimated
Wed 04:31:00 AM 6.5274 -58.2745 145° Southeast  Level Estimated
Wed 04:32:00 AM 6.4985 -58.2541 145° Southeast  Level Estimated
Wed 04:33:00 AM 6.4985 -58.2541 18° North  Level Estimated
Wed 04:34:00 AM 6.4985 -58.2541 18° North  Level Estimated
Wed 04:35:00 AM 6.4985 -58.2541 18° North  Level Estimated
Wed 04:36:00 AM 6.4985 -58.2541 18° North  Level Estimated
Wed 04:37:00 AM 6.4985 -58.2541 18° North  Level Estimated
Wed 04:38:00 AM 6.4985 -58.2541 18° North  Level Estimated
Wed 04:39:00 AM 6.4985 -58.2541 18° North  Level Estimated
Wed 04:40:00 AM 6.4985 -58.2541 18° North  Level Estimated
Wed 04:41:00 AM 6.4985 -58.2541 18° North  Level Estimated
Wed 04:42:00 AM 6.4985 -58.2541 18° North  Level Estimated
Wed 04:43:00 AM 6.4985 -58.2541 18° North  Level Estimated
Wed 04:44:00 AM 6.4985 -58.2541 18° North  Level Estimated
Wed 04:45:00 AM 6.4985 -58.2541 18° North  Level Estimated
Wed 04:46:00 AM 6.4985 -58.2541 18° North  Level Estimated
Wed 04:47:00 AM 6.4985 -58.2541 18° North  Level Estimated
Wed 04:48:00 AM 6.4985 -58.2541 18° North  Level Estimated
Wed 04:49:00 AM 6.4985 -58.2541 18° North  Level Estimated
Wed 04:50:00 AM 6.4985 -58.2541 18° North  Level Estimated
Wed 04:51:00 AM 6.4985 -58.2541 18° North  Level Estimated
Wed 04:52:00 AM 6.4985 -58.2541 18° North  Level Estimated
Wed 04:53:00 AM 6.4985 -58.2541 18° North  Level Estimated
Wed 04:54:00 AM 6.4985 -58.2541 18° North  Level Estimated
Wed 04:55:00 AM 6.4985 -58.2541 18° North  Level Estimated
Wed 04:56:00 AM 6.4985 -58.2541 18° North  Level Estimated
Wed 04:57:00 AM 6.4985 -58.2541 18° North  Level Estimated
Wed 04:58:00 AM 6.4985 -58.2541 18° North  Level Estimated
Wed 04:59:00 AM 6.4985 -58.2541 18° North  Level Estimated
Wed 05:00:00 AM 6.4985 -58.2541 18° North  Level Estimated
Wed 05:01:00 AM 6.4985 -58.2541 18° North  Level Estimated
Wed 05:02:00 AM 6.4985 -58.2541 18° North  Level Estimated
Wed 05:03:00 AM 6.4985 -58.2541 18° North  Level Estimated
Wed 05:04:00 AM 6.4985 -58.2541 18° North  Level Estimated
Wed 05:05:00 AM 6.4985 -58.2541 18° North  Level Estimated
Wed 05:06:00 AM 6.4985 -58.2541 18° North  Level Estimated
Wed 05:07:00 AM 6.4985 -58.2541 18° North  Level Estimated
Wed 05:08:00 AM 6.4985 -58.2541 18° North  Level Estimated
Wed 05:09:00 AM 6.4985 -58.2541 18° North  Level Estimated
Wed 05:10:00 AM 6.4985 -58.2541 18° North  Level Estimated
Wed 05:11:00 AM 6.4985 -58.2541 18° North  Level Estimated
Wed 05:12:00 AM 6.4985 -58.2541 18° North  Level Estimated
Wed 05:13:00 AM 6.4985 -58.2541 18° North  Level Estimated
Wed 05:14:00 AM 6.4985 -58.2541 18° North  Level Estimated
Wed 05:15:00 AM 6.4985 -58.2541 18° North  Level Estimated
Wed 05:16:00 AM 6.4985 -58.2541 18° North  Level Estimated
Wed 05:17:00 AM 6.4985 -58.2541 18° North  Level Estimated
Wed 05:18:00 AM 6.4985 -58.2541 18° North  Level Estimated
Wed 05:19:00 AM 6.4985 -58.2541 18° North  Level Estimated
Wed 05:20:00 AM 6.4985 -58.2541 18° North  Level Estimated
Wed 05:21:00 AM 6.4985 -58.2541 18° North  Level Estimated
Wed 05:22:00 AM 6.4985 -58.2541 18° North  Level Estimated
Wed 05:23:00 AM 6.4985 -58.2541 18° North  Level Estimated
Wed 05:24:00 AM 6.4985 -58.2541 18° North  Level Estimated
Wed 05:25:00 AM 6.4985 -58.2541 18° North  Level Estimated
Wed 05:26:00 AM 6.4985 -58.2541 18° North  Level Estimated
Wed 05:27:00 AM 6.4985 -58.2541 18° North  Level Estimated
Wed 05:28:00 AM 6.4985 -58.2541 18° North  Level Estimated
Wed 05:29:00 AM 6.4985 -58.2541 18° North  Level Estimated
Wed 05:30:00 AM 6.4985 -58.2541 18° North  Level Estimated
Wed 05:31:00 AM 6.4985 -58.2541 18° North  Level Estimated
Wed 05:32:00 AM 6.4985 -58.2541 18° North  Level Estimated
Wed 05:33:00 AM 6.4985 -58.2541 18° North  Level Estimated
Wed 05:34:00 AM 6.4985 -58.2541 18° North  Level Estimated
Wed 05:35:00 AM 6.4985 -58.2541 18° North  Level Estimated
Wed 05:36:00 AM 6.4985 -58.2541 18° North  Level Estimated
Wed 05:37:00 AM 6.4985 -58.2541 18° North  Level Estimated
Wed 05:38:00 AM 6.4985 -58.2541 18° North  Level Estimated
Wed 05:39:00 AM 6.4985 -58.2541 18° North  Level Estimated
Wed 05:40:00 AM 6.4985 -58.2541 18° North  Level Estimated
Wed 05:41:00 AM 6.4985 -58.2541 18° North  Level Estimated
Wed 05:42:00 AM 6.4985 -58.2541 18° North  Level Estimated
Wed 05:43:00 AM 6.4985 -58.2541 18° North  Level Estimated
Wed 05:44:00 AM 6.4985 -58.2541 18° North  Level Estimated
Wed 05:45:00 AM 6.4985 -58.2541 18° North  Level Estimated
Wed 05:46:00 AM 6.4985 -58.2541 18° North  Level Estimated
Wed 05:47:00 AM 6.4985 -58.2541 18° North  Level Estimated

Login

Don't have an account? Register now (free) for customized features, flight alerts, and more!